Latest Weather Observations for Luncheon Hill

IDT60801

Issued at 9:11 pm EST Thursday 24 September 2020 (issued every 10 minutes, with the page automatically refreshed every 10 minutes)

About weather observations | Map of weather stations | Latest weather observations for TAS | Other Formats
Station Details ID: 091259 Name: LUNCHEON HILL (FORESTRY) Lat: -41.15 Lon: 145.15 Height: 344.0 m
Data from the previous 72 hours. | See also: Recent months at Luncheon Hill
Date/Time
EST
Temp
°C
App
Temp
°C
Dew
Point
°C
Rel
Hum
%
Delta-T
°C
Wind Press
QNH
hPa
Press
MSL
hPa
Rain since
9am
mm
Dir  Spd
km/h
Gust
km/h
Spd
kts
Gust
kts
24/09:00pm 5.0 -0.3 5.0 100 0.0 NE 22 28 12 15 - - 0.8
24/08:30pm 4.9 -0.4 4.9 100 0.0 NNE 22 26 12 14 - - 0.8
24/08:00pm 5.1 0.2 5.1 100 0.0 N 20 24 11 13 - - 0.8
24/07:30pm 5.3 0.6 5.2 99 0.0 N 19 22 10 12 - - 0.8
24/07:00pm 5.6 1.7 5.3 98 0.1 N 15 19 8 10 - - 0.8
24/06:30pm 6.0 1.7 5.4 96 0.3 WNW 17 20 9 11 - - 0.8
24/06:00pm 6.4 3.3 5.7 95 0.3 NW 11 15 6 8 - - 0.8
24/05:30pm 7.1 3.5 4.9 86 1.0 NNW 13 17 7 9 - - 0.6
24/05:00pm 7.8 4.5 4.7 81 1.4 NNW 11 15 6 8 - - 0.6
24/04:30pm 8.3 4.9 5.8 84 1.2 NW 13 19 7 10 - - 0.6
24/04:00pm 7.7 4.0 4.7 81 1.3 WNW 13 17 7 9 - - 0.4
24/03:30pm 7.8 1.2 4.0 77 1.7 WNW 28 35 15 19 - - 0.4
24/03:00pm 9.2 4.0 3.8 69 2.4 WNW 20 28 11 15 - - 0.4
24/02:30pm 9.4 5.3 4.2 70 2.3 W 15 20 8 11 - - 0.4
24/02:00pm 10.1 5.9 4.0 66 2.7 WNW 15 24 8 13 - - 0.4
24/01:30pm 11.3 6.3 4.5 63 3.1 WNW 20 28 11 15 - - 0.4
24/01:00pm 10.6 5.7 4.9 68 2.6 WNW 20 28 11 15 - - 0.4
24/12:30pm 8.7 4.4 3.5 70 2.3 W 15 24 8 13 - - 0.4
24/12:00pm 9.0 4.3 3.2 67 2.5 W 17 24 9 13 - - 0.4
24/11:30am 8.5 3.6 3.9 73 2.0 W 19 28 10 15 - - 0.4
24/11:00am 9.3 4.9 6.4 82 1.4 W 19 24 10 13 - - 0.4
24/10:30am 7.4 3.6 7.4 100 0.0 W 17 26 9 14 - - 0.4
24/10:00am 6.2 2.9 6.2 100 0.0 W 13 22 7 12 - - 0.4
24/09:30am 5.8 2.0 5.8 100 0.0 WSW 15 26 8 14 - - 0.0
24/09:00am 5.8 2.0 5.8 100 0.0 WSW 15 24 8 13 - - 5.8
24/08:30am 5.3 1.8 5.3 100 0.0 WSW 13 20 7 11 - - 5.6
24/08:00am 5.2 2.0 5.2 100 0.0 WSW 11 19 6 10 - - 5.4
24/07:30am 4.7 0.7 4.7 100 0.0 SW 15 22 8 12 - - 5.2
24/07:00am 4.5 0.4 4.5 100 0.0 WSW 15 30 8 16 - - 5.2
24/06:30am 4.4 0.7 4.4 100 0.0 WSW 13 20 7 11 - - 5.0
24/06:00am 3.9 -0.3 3.9 100 0.0 SW 15 22 8 12 - - 5.0
24/05:30am 4.2 0.8 4.2 100 0.0 W 11 20 6 11 - - 5.0
24/05:00am 4.2 0.5 4.2 100 0.0 SW 13 17 7 9 - - 5.0
24/04:30am 4.2 0.5 4.2 100 0.0 SSW 13 19 7 10 - - 5.0
24/04:00am 4.6 0.9 4.6 100 0.0 SSW 13 24 7 13 - - 5.0
24/03:30am 4.5 0.1 4.5 100 0.0 SW 17 26 9 14 - - 5.0
24/03:00am 4.7 1.0 4.7 100 0.0 WSW 13 20 7 11 - - 4.6
24/02:30am 4.9 1.3 4.9 100 0.0 WSW 13 22 7 12 - - 4.6
24/02:00am 4.7 0.7 4.7 100 0.0 SW 15 20 8 11 - - 4.4
24/01:30am 5.1 1.1 5.1 100 0.0 SW 15 20 8 11 - - 4.4
24/01:00am 4.9 1.3 4.9 100 0.0 WSW 13 20 7 11 - - 4.4
24/12:30am 5.3 1.0 5.3 100 0.0 SW 17 24 9 13 - - 4.4
24/12:00am 5.9 2.5 5.9 100 0.0 SW 13 20 7 11 - - 4.0
 
Date/Time
EST
Temp
°C
App
Temp
°C
Dew
Point
°C
Rel
Hum
%
Delta-T
°C
Wind Press
QNH
hPa
Press
MSL
hPa
Rain since
9am
mm
Dir  Spd
km/h
Gust
km/h
Spd
kts
Gust
kts
23/11:30pm 5.7 1.9 5.7 100 0.0 SSW 15 20 8 11 - - 3.6
23/11:00pm 5.9 2.1 5.9 100 0.0 SSE 15 22 8 12 - - 3.6
23/10:30pm 6.0 2.6 6.0 100 0.0 SW 13 24 7 13 - - 3.6
23/10:00pm 6.3 3.0 6.3 100 0.0 SSW 13 17 7 9 - - 3.6
23/09:30pm 6.4 2.3 6.4 100 0.0 SSW 17 22 9 12 - - 3.6
23/09:00pm 6.5 2.1 6.5 100 0.0 S 19 24 10 13 - - 3.4
23/08:30pm 6.3 2.2 6.3 100 0.0 S 17 26 9 14 - - 3.4
23/08:00pm 6.8 2.8 6.8 100 0.0 SSW 17 26 9 14 - - 3.2
23/07:30pm 6.9 2.6 6.9 100 0.0 SSW 19 26 10 14 - - 3.2
23/07:00pm 6.9 2.4 6.9 100 0.0 SSE 20 26 11 14 - - 3.2
23/06:30pm 7.0 2.7 7.0 100 0.0 SSW 19 30 10 16 - - 3.2
23/06:00pm 7.1 2.2 7.1 100 0.0 SSW 22 39 12 21 - - 3.2
23/05:30pm 7.5 3.1 7.5 100 0.0 SSW 20 33 11 18 - - 3.2
23/05:00pm 7.6 2.1 7.5 99 0.0 SSW 26 41 14 22 - - 3.2
23/04:30pm 8.0 3.0 7.9 99 0.0 SSW 24 37 13 20 - - 3.0
23/04:00pm 8.5 3.1 8.2 98 0.1 SSW 26 39 14 21 - - 2.6
23/03:30pm 9.0 4.5 8.6 97 0.2 SSW 22 33 12 18 - - 2.4
23/03:05pm 8.5 2.7 7.9 96 0.3 SSW 28 48 15 26 - - 2.0
23/03:00pm 8.5 3.4 7.7 95 0.4 SSW 24 48 13 26 - - 1.8
23/02:30pm 9.8 4.2 8.9 94 0.5 SW 28 46 15 25 - - 1.8
23/02:07pm 8.3 2.3 7.2 93 0.5 SSW 28 50 15 27 - - 1.8
23/02:00pm 9.2 3.9 8.3 94 0.4 SW 26 41 14 22 - - 1.6
23/01:30pm 8.9 3.6 8.3 96 0.3 SSW 26 41 14 22 - - 1.6
23/01:11pm 8.7 2.9 8.1 96 0.3 SSW 28 46 15 25 - - 1.6
23/01:00pm 8.6 1.8 7.8 95 0.4 SSW 33 57 18 31 - - 1.6
23/12:30pm 9.3 2.5 7.1 86 1.1 SW 32 54 17 29 - - 1.6
23/12:01pm 9.3 3.8 9.3 100 0.0 SW 28 50 15 27 - - 1.6
23/12:00pm 9.7 4.7 9.7 100 0.0 SW 26 48 14 26 - - 1.6
23/11:30am 8.5 2.8 8.5 100 0.0 SSW 28 50 15 27 - - 1.4
23/11:10am 8.5 2.8 8.5 100 0.0 SSW 28 54 15 29 - - 1.2
23/11:00am 8.5 3.2 8.5 100 0.0 SSW 26 43 14 23 - - 1.0
23/10:30am 8.1 2.3 8.1 100 0.0 SW 28 44 15 24 - - 1.0
23/10:00am 8.3 3.0 8.3 100 0.0 SSW 26 48 14 26 - - 0.8
23/09:30am 7.6 1.7 7.6 100 0.0 SSW 28 41 15 22 - - 0.8
23/09:14am 7.7 1.8 7.7 100 0.0 SW 28 65 15 35 - - 0.4
23/09:00am 8.1 2.7 8.1 100 0.0 SW 26 48 14 26 - - 19.2
23/08:30am 7.8 2.0 7.8 100 0.0 SW 28 44 15 24 - - 19.2
23/08:19am 7.6 1.7 7.6 100 0.0 SW 28 50 15 27 - - 18.8
23/08:00am 7.6 2.1 7.6 100 0.0 SW 26 48 14 26 - - 18.8
23/07:53am 7.4 1.5 7.4 100 0.0 WSW 28 46 15 25 - - 18.6
23/07:30am 7.2 2.0 7.2 100 0.0 WSW 24 39 13 21 - - 18.6
23/07:00am 6.9 0.9 6.9 100 0.0 WSW 28 52 15 28 - - 18.2
23/06:58am 6.9 0.9 6.9 100 0.0 WSW 28 52 15 28 - - 18.2
23/06:30am 6.7 1.4 6.7 100 0.0 WSW 24 39 13 21 - - 18.0
23/06:09am 6.6 0.5 6.6 100 0.0 WSW 28 48 15 26 - - 17.8
23/06:00am 6.6 0.9 6.6 100 0.0 WSW 26 44 14 24 - - 17.8
23/05:30am 6.6 0.9 6.6 100 0.0 SW 26 46 14 25 - - 17.2
23/05:03am 6.5 0.4 6.5 100 0.0 W 28 46 15 25 - - 17.0
23/05:00am 6.4 -0.1 6.4 100 0.0 W 30 46 16 25 - - 16.8
23/04:58am 6.4 0.3 6.4 100 0.0 W 28 46 15 25 - - 16.8
23/04:30am 6.4 1.0 6.4 100 0.0 WSW 24 48 13 26 - - 16.6
23/04:00am 6.5 1.5 6.5 100 0.0 W 22 33 12 18 - - 16.2
23/03:30am 6.4 1.0 6.4 100 0.0 W 24 46 13 25 - - 16.0
23/03:00am 6.2 1.1 6.2 100 0.0 W 22 43 12 23 - - 15.8
23/02:30am 6.2 1.5 6.2 100 0.0 W 20 32 11 17 - - 15.6
23/02:00am 6.1 0.3 6.1 100 0.0 WSW 26 43 14 23 - - 15.2
23/01:30am 6.1 0.3 6.1 100 0.0 SSW 26 48 14 26 - - 15.0
23/01:06am 6.2 0.0 6.2 100 0.0 WSW 28 50 15 27 - - 14.2
23/01:00am 6.5 1.9 6.5 100 0.0 WSW 20 43 11 23 - - 14.0
23/12:30am 6.6 1.3 6.6 100 0.0 WSW 24 41 13 22 - - 13.8
23/12:00am 6.7 1.8 6.7 100 0.0 W 22 35 12 19 - - 13.6
 
Date/Time
EST
Temp
°C
App
Temp
°C
Dew
Point
°C
Rel
Hum
%
Delta-T
°C
Wind Press
QNH
hPa
Press
MSL
hPa
Rain since
9am
mm
Dir  Spd
km/h
Gust
km/h
Spd
kts
Gust
kts
22/11:30pm 6.7 1.4 6.7 100 0.0 WNW 24 39 13 21 - - 13.6
22/11:00pm 6.9 1.6 6.9 100 0.0 W 24 48 13 26 - - 13.6
22/10:30pm 6.9 0.9 6.9 100 0.0 W 28 48 15 26 - - 13.4
22/10:01pm 6.9 0.9 6.9 100 0.0 WSW 28 46 15 25 - - 13.4
22/10:00pm 6.9 1.2 6.9 100 0.0 WSW 26 46 14 25 - - 13.4
22/09:30pm 7.2 2.0 7.2 100 0.0 W 24 50 13 27 - - 13.0
22/09:00pm 7.3 1.0 7.3 100 0.0 WSW 30 48 16 26 - - 13.0
22/08:52pm 7.5 1.6 7.5 100 0.0 WSW 28 48 15 26 - - 13.0
22/08:30pm 7.7 3.0 7.7 100 0.0 W 22 33 12 18 - - 12.8
22/08:00pm 7.8 3.5 7.8 100 0.0 W 20 33 11 18 - - 12.8
22/07:30pm 7.9 2.9 7.9 100 0.0 W 24 39 13 21 - - 11.6
22/07:11pm 7.8 2.0 7.8 100 0.0 W 28 46 15 25 - - 11.2
22/07:00pm 7.9 2.9 7.9 100 0.0 W 24 41 13 22 - - 11.0
22/06:30pm 7.8 3.7 7.8 100 0.0 WSW 19 32 10 17 - - 10.8
22/06:00pm 8.0 3.4 8.0 100 0.0 WSW 22 35 12 19 - - 10.6
22/05:30pm 8.3 4.7 8.2 99 0.0 WSW 17 28 9 15 - - 10.0
22/05:00pm 8.4 3.8 8.1 98 0.1 WSW 22 41 12 22 - - 9.8
22/04:30pm 8.9 5.3 8.5 97 0.2 W 17 32 9 17 - - 9.2
22/04:00pm 9.7 5.0 9.4 98 0.2 WNW 24 32 13 17 - - 9.2
22/03:30pm 9.5 4.8 9.4 99 0.1 NW 24 37 13 20 - - 9.2
22/03:00pm 9.3 3.4 9.0 98 0.2 WNW 30 37 16 20 - - 8.2
22/02:30pm 9.2 3.6 8.7 97 0.2 WNW 28 41 15 22 - - 7.6
22/02:00pm 8.8 1.9 8.7 99 0.0 WNW 35 56 19 30 - - 7.2
22/01:57pm 9.0 2.5 9.0 100 0.0 WNW 33 54 18 29 - - 7.2
22/01:30pm 8.4 0.2 8.3 99 0.0 WNW 41 52 22 28 - - 7.2
22/01:18pm 8.6 0.0 8.2 97 0.2 NW 43 76 23 41 - - 7.0
22/01:17pm 8.5 0.3 8.1 97 0.2 NW 41 76 22 41 - - 7.0
22/01:03pm 9.6 2.1 9.5 99 0.1 WNW 39 57 21 31 - - 7.0
22/01:00pm 9.9 2.1 9.9 100 0.0 WNW 41 57 22 31 - - 7.0
22/12:36pm 9.1 1.5 9.1 100 0.0 NW 39 72 21 39 - - 6.8
22/12:34pm 9.5 3.1 9.5 100 0.0 WNW 33 54 18 29 - - 6.8
22/12:30pm 9.7 3.6 9.7 100 0.0 WNW 32 48 17 26 - - 6.8
22/12:00pm 9.1 1.9 9.1 100 0.0 WNW 37 56 20 30 - - 6.2
22/11:54am 9.6 4.2 9.6 100 0.0 NW 28 54 15 29 - - 6.2
22/11:30am 9.0 3.5 9.0 100 0.0 WNW 28 43 15 23 - - 6.0
22/11:00am 8.5 1.1 8.5 100 0.0 NW 37 52 20 28 - - 6.0
22/10:49am 8.2 1.7 8.2 100 0.0 NW 32 54 17 29 - - 5.6
22/10:30am 8.9 2.6 8.9 100 0.0 NW 32 46 17 25 - - 5.4
22/10:00am 8.1 0.3 8.1 100 0.0 WNW 39 54 21 29 - - 5.0
22/09:35am 8.8 2.8 8.8 100 0.0 NW 30 48 16 26 - - 2.4
22/09:30am 8.9 2.4 8.9 100 0.0 NW 33 48 18 26 - - 1.0
22/09:14am 8.9 2.6 8.9 100 0.0 NW 32 50 17 27 - - 0.0
22/09:12am 9.1 3.2 9.1 100 0.0 NW 30 50 16 27 - - 0.0
22/09:00am 9.0 2.7 9.0 100 0.0 NW 32 46 17 25 - - 6.4
22/08:30am 8.7 1.8 8.7 100 0.0 NW 35 52 19 28 - - 6.4
22/08:00am 8.6 3.0 8.6 100 0.0 NW 28 43 15 23 - - 6.4
22/07:30am 8.4 3.5 8.4 100 0.0 WNW 24 39 13 21 - - 5.8
22/07:03am 8.3 1.8 8.3 100 0.0 NW 32 50 17 27 - - 5.6
22/07:00am 8.3 1.8 8.3 100 0.0 NW 32 43 17 23 - - 5.4
22/06:30am 8.2 3.2 8.2 100 0.0 NNW 24 32 13 17 - - 5.4
22/06:00am 8.0 3.0 8.0 100 0.0 NW 24 32 13 17 - - 5.4
22/05:30am 8.0 1.3 8.0 100 0.0 NW 33 52 18 28 - - 5.2
22/05:12am 8.1 2.3 8.1 100 0.0 NW 28 46 15 25 - - 5.0
22/05:00am 8.1 1.6 8.1 100 0.0 NW 32 43 17 23 - - 5.0
22/04:30am 8.2 2.1 8.2 100 0.0 NW 30 44 16 24 - - 4.4
22/04:00am 7.9 1.1 7.8 99 0.0 WNW 33 46 18 25 - - 3.8
22/03:30am 8.8 1.4 8.5 98 0.1 NW 37 56 20 30 - - 2.8
22/03:29am 8.8 1.4 8.5 98 0.1 NW 37 56 20 30 - - 2.8
22/03:00am 8.9 2.3 8.6 98 0.1 NNW 33 50 18 27 - - 2.0
22/02:30am 9.2 1.7 8.0 92 0.6 NNW 37 59 20 32 - - 1.6
22/02:00am 9.4 1.5 7.8 90 0.8 NNW 39 59 21 32 - - 1.6
22/01:54am 9.4 1.9 8.0 91 0.7 NNW 37 59 20 32 - - 1.6
22/01:30am 9.4 2.2 7.8 90 0.8 NW 35 50 19 27 - - 1.6
22/01:00am 9.2 2.1 8.0 92 0.6 NW 35 48 19 26 - - 1.6
22/12:38am 9.0 1.9 8.2 95 0.4 NNW 35 57 19 31 - - 1.6
22/12:30am 9.2 2.7 8.0 92 0.6 NNW 32 46 17 25 - - 1.6
22/12:09am 9.4 2.6 7.5 88 0.9 NNW 33 54 18 29 - - 1.4
22/12:00am 9.4 3.2 7.7 89 0.8 NW 30 39 16 21 - - 1.4
 
Date/Time
EST
Temp
°C
App
Temp
°C
Dew
Point
°C
Rel
Hum
%
Delta-T
°C
Wind Press
QNH
hPa
Press
MSL
hPa
Rain since
9am
mm
Dir  Spd
km/h
Gust
km/h
Spd
kts
Gust
kts
21/11:30pm 9.3 3.5 7.9 91 0.7 NW 28 39 15 21 - - 1.4
21/11:00pm 9.3 4.4 8.4 94 0.4 NNW 24 32 13 17 - - 1.4
21/10:30pm 8.8 4.7 8.7 99 0.0 N 20 24 11 13 - - 1.4
21/10:00pm 8.8 3.6 8.7 99 0.0 N 26 32 14 17 - - 1.4
21/09:30pm 8.6 4.0 8.3 98 0.1 N 22 33 12 18 - - 1.4

Other formats

Comma delimited format used in spreadsheet applications
http://www.bom.gov.au/fwo/IDT60801/IDT60801.95956.axf

JavaScript Object Notation format (JSON) in row-major order
http://www.bom.gov.au/fwo/IDT60801/IDT60801.95956.json

Data quality

Most of these data are generated automatically and are frequently updated. Quality checks on data are not normally performed. It is possible for incorrect values to appear. Refer to information at About Latest Weather Observations and please check the disclaimer before using these data.